sensor_id;sensor_type;location;lat;lon;timestamp;P1;durP1;ratioP1;P2;durP2;ratioP2
42094;SDS011;27753;55.724;37.612;2022-10-26T00:00:00;14.00;;;9.38;;
42094;SDS011;27753;55.724;37.612;2022-10-26T00:02:26;16.42;;;9.93;;
42094;SDS011;27753;55.724;37.612;2022-10-26T00:04:52;14.70;;;8.38;;
42094;SDS011;27753;55.724;37.612;2022-10-26T00:07:18;16.23;;;9.38;;
42094;SDS011;27753;55.724;37.612;2022-10-26T00:09:44;16.20;;;9.40;;
42094;SDS011;27753;55.724;37.612;2022-10-26T00:12:10;13.40;;;9.68;;
42094;SDS011;27753;55.724;37.612;2022-10-26T00:14:36;15.88;;;10.57;;
42094;SDS011;27753;55.724;37.612;2022-10-26T00:17:02;14.18;;;9.98;;
42094;SDS011;27753;55.724;37.612;2022-10-26T00:19:31;21.33;;;11.25;;
42094;SDS011;27753;55.724;37.612;2022-10-26T00:21:58;15.07;;;9.50;;
42094;SDS011;27753;55.724;37.612;2022-10-26T00:24:24;16.60;;;9.30;;
42094;SDS011;27753;55.724;37.612;2022-10-26T00:26:50;16.75;;;11.18;;
42094;SDS011;27753;55.724;37.612;2022-10-26T00:29:16;15.65;;;10.35;;
42094;SDS011;27753;55.724;37.612;2022-10-26T00:31:42;14.88;;;8.90;;
42094;SDS011;27753;55.724;37.612;2022-10-26T00:34:09;16.52;;;9.80;;
42094;SDS011;27753;55.724;37.612;2022-10-26T00:36:36;16.33;;;9.98;;
42094;SDS011;27753;55.724;37.612;2022-10-26T00:39:02;14.15;;;9.93;;
42094;SDS011;27753;55.724;37.612;2022-10-26T00:41:30;15.98;;;10.75;;
42094;SDS011;27753;55.724;37.612;2022-10-26T00:43:57;19.27;;;11.05;;
42094;SDS011;27753;55.724;37.612;2022-10-26T00:49:17;20.08;;;13.48;;
42094;SDS011;27753;55.724;37.612;2022-10-26T00:51:45;16.88;;;10.32;;
42094;SDS011;27753;55.724;37.612;2022-10-26T00:54:16;21.92;;;11.32;;
42094;SDS011;27753;55.724;37.612;2022-10-26T00:56:44;16.08;;;10.95;;
42094;SDS011;27753;55.724;37.612;2022-10-26T00:59:12;16.20;;;11.80;;
42094;SDS011;27753;55.724;37.612;2022-10-26T01:04:08;16.08;;;11.85;;
42094;SDS011;27753;55.724;37.612;2022-10-26T01:06:34;19.80;;;10.48;;
42094;SDS011;27753;55.724;37.612;2022-10-26T01:09:02;18.77;;;11.57;;
42094;SDS011;27753;55.724;37.612;2022-10-26T01:11:28;16.73;;;9.88;;
42094;SDS011;27753;55.724;37.612;2022-10-26T01:13:54;16.13;;;10.75;;
42094;SDS011;27753;55.724;37.612;2022-10-26T01:22:05;16.10;;;11.05;;
42094;SDS011;27753;55.724;37.612;2022-10-26T01:30:21;19.45;;;10.68;;
42094;SDS011;27753;55.724;37.612;2022-10-26T01:44:40;14.13;;;10.05;;
42094;SDS011;27753;55.724;37.612;2022-10-26T01:46:48;15.63;;;9.60;;
42094;SDS011;27753;55.724;37.612;2022-10-26T01:49:17;16.80;;;9.95;;
42094;SDS011;27753;55.724;37.612;2022-10-26T01:51:47;19.25;;;10.75;;
42094;SDS011;27753;55.724;37.612;2022-10-26T01:54:14;17.50;;;9.80;;
42094;SDS011;27753;55.724;37.612;2022-10-26T01:56:41;15.10;;;9.43;;
42094;SDS011;27753;55.724;37.612;2022-10-26T02:01:43;13.90;;;10.75;;
42094;SDS011;27753;55.724;37.612;2022-10-26T02:07:16;14.38;;;9.10;;
42094;SDS011;27753;55.724;37.612;2022-10-26T02:15:44;16.13;;;9.43;;
42094;SDS011;27753;55.724;37.612;2022-10-26T02:18:17;10.13;;;7.97;;
42094;SDS011;27753;55.724;37.612;2022-10-26T02:20:48;21.55;;;9.25;;
42094;SDS011;27753;55.724;37.612;2022-10-26T02:23:17;12.65;;;8.40;;
42094;SDS011;27753;55.724;37.612;2022-10-26T02:25:46;15.32;;;8.55;;
42094;SDS011;27753;55.724;37.612;2022-10-26T02:28:18;15.27;;;8.52;;
42094;SDS011;27753;55.724;37.612;2022-10-26T02:30:51;14.00;;;9.40;;
42094;SDS011;27753;55.724;37.612;2022-10-26T02:33:19;12.65;;;8.40;;
42094;SDS011;27753;55.724;37.612;2022-10-26T02:35:49;17.13;;;9.82;;
42094;SDS011;27753;55.724;37.612;2022-10-26T02:38:18;10.05;;;8.30;;
42094;SDS011;27753;55.724;37.612;2022-10-26T02:40:48;16.10;;;9.77;;
42094;SDS011;27753;55.724;37.612;2022-10-26T02:43:16;15.32;;;9.55;;
42094;SDS011;27753;55.724;37.612;2022-10-26T02:45:51;11.98;;;8.57;;
42094;SDS011;27753;55.724;37.612;2022-10-26T02:48:20;22.42;;;9.90;;
42094;SDS011;27753;55.724;37.612;2022-10-26T02:50:52;12.15;;;8.88;;
42094;SDS011;27753;55.724;37.612;2022-10-26T02:56:13;13.77;;;8.50;;
42094;SDS011;27753;55.724;37.612;2022-10-26T02:58:50;13.65;;;8.50;;
42094;SDS011;27753;55.724;37.612;2022-10-26T03:01:19;14.68;;;8.70;;
42094;SDS011;27753;55.724;37.612;2022-10-26T03:03:46;12.40;;;8.73;;
42094;SDS011;27753;55.724;37.612;2022-10-26T03:06:19;13.63;;;8.43;;
42094;SDS011;27753;55.724;37.612;2022-10-26T03:08:46;17.67;;;9.13;;
42094;SDS011;27753;55.724;37.612;2022-10-26T03:11:12;13.25;;;9.20;;
42094;SDS011;27753;55.724;37.612;2022-10-26T03:13:38;13.10;;;7.75;;
42094;SDS011;27753;55.724;37.612;2022-10-26T03:16:04;16.33;;;9.00;;
42094;SDS011;27753;55.724;37.612;2022-10-26T03:18:29;11.25;;;8.77;;
42094;SDS011;27753;55.724;37.612;2022-10-26T03:20:55;12.05;;;8.82;;
42094;SDS011;27753;55.724;37.612;2022-10-26T03:23:21;17.30;;;9.10;;
42094;SDS011;27753;55.724;37.612;2022-10-26T03:25:47;14.23;;;8.18;;
42094;SDS011;27753;55.724;37.612;2022-10-26T03:28:13;11.55;;;7.90;;
42094;SDS011;27753;55.724;37.612;2022-10-26T03:30:39;12.23;;;8.43;;
42094;SDS011;27753;55.724;37.612;2022-10-26T03:33:05;11.55;;;8.80;;
42094;SDS011;27753;55.724;37.612;2022-10-26T03:35:30;12.05;;;8.25;;
42094;SDS011;27753;55.724;37.612;2022-10-26T03:37:56;12.68;;;8.00;;
42094;SDS011;27753;55.724;37.612;2022-10-26T03:40:22;17.48;;;9.13;;
42094;SDS011;27753;55.724;37.612;2022-10-26T03:42:48;13.68;;;7.88;;
42094;SDS011;27753;55.724;37.612;2022-10-26T03:45:14;10.82;;;7.72;;
42094;SDS011;27753;55.724;37.612;2022-10-26T03:47:46;13.10;;;9.13;;
42094;SDS011;27753;55.724;37.612;2022-10-26T03:50:14;14.05;;;8.95;;
42094;SDS011;27753;55.724;37.612;2022-10-26T03:52:42;10.52;;;8.18;;
42094;SDS011;27753;55.724;37.612;2022-10-26T03:55:08;12.30;;;8.18;;
42094;SDS011;27753;55.724;37.612;2022-10-26T03:57:41;12.07;;;8.32;;
42094;SDS011;27753;55.724;37.612;2022-10-26T04:00:08;16.60;;;8.63;;
42094;SDS011;27753;55.724;37.612;2022-10-26T04:02:35;15.10;;;9.32;;
42094;SDS011;27753;55.724;37.612;2022-10-26T04:05:01;14.90;;;8.40;;
42094;SDS011;27753;55.724;37.612;2022-10-26T04:07:27;13.80;;;8.68;;
42094;SDS011;27753;55.724;37.612;2022-10-26T04:09:53;11.70;;;8.35;;
42094;SDS011;27753;55.724;37.612;2022-10-26T04:12:19;15.15;;;8.43;;
42094;SDS011;27753;55.724;37.612;2022-10-26T04:14:45;14.40;;;9.32;;
42094;SDS011;27753;55.724;37.612;2022-10-26T04:17:10;14.20;;;8.40;;
42094;SDS011;27753;55.724;37.612;2022-10-26T04:19:36;12.88;;;7.95;;
42094;SDS011;27753;55.724;37.612;2022-10-26T04:22:02;13.00;;;8.75;;
42094;SDS011;27753;55.724;37.612;2022-10-26T04:24:28;14.25;;;9.02;;
42094;SDS011;27753;55.724;37.612;2022-10-26T04:26:54;12.88;;;7.65;;
42094;SDS011;27753;55.724;37.612;2022-10-26T04:29:20;13.20;;;8.98;;
42094;SDS011;27753;55.724;37.612;2022-10-26T04:31:45;17.77;;;8.75;;
42094;SDS011;27753;55.724;37.612;2022-10-26T04:34:14;14.82;;;9.55;;
42094;SDS011;27753;55.724;37.612;2022-10-26T04:36:40;11.55;;;7.97;;
42094;SDS011;27753;55.724;37.612;2022-10-26T04:39:06;13.98;;;8.90;;
42094;SDS011;27753;55.724;37.612;2022-10-26T04:41:32;17.50;;;9.00;;
42094;SDS011;27753;55.724;37.612;2022-10-26T04:43:57;14.05;;;8.68;;
42094;SDS011;27753;55.724;37.612;2022-10-26T04:46:23;14.90;;;8.60;;
42094;SDS011;27753;55.724;37.612;2022-10-26T04:48:49;20.40;;;9.50;;
42094;SDS011;27753;55.724;37.612;2022-10-26T04:51:15;15.48;;;10.50;;
42094;SDS011;27753;55.724;37.612;2022-10-26T04:53:41;12.93;;;8.32;;
42094;SDS011;27753;55.724;37.612;2022-10-26T04:56:07;12.02;;;8.57;;
42094;SDS011;27753;55.724;37.612;2022-10-26T04:58:33;13.63;;;9.88;;
42094;SDS011;27753;55.724;37.612;2022-10-26T05:01:00;17.63;;;8.63;;
42094;SDS011;27753;55.724;37.612;2022-10-26T05:03:26;17.38;;;9.60;;
42094;SDS011;27753;55.724;37.612;2022-10-26T05:05:52;13.23;;;8.68;;
42094;SDS011;27753;55.724;37.612;2022-10-26T05:08:22;16.08;;;8.68;;
42094;SDS011;27753;55.724;37.612;2022-10-26T05:10:48;15.10;;;8.35;;
42094;SDS011;27753;55.724;37.612;2022-10-26T05:13:14;15.13;;;10.00;;
42094;SDS011;27753;55.724;37.612;2022-10-26T05:15:41;15.57;;;9.65;;
42094;SDS011;27753;55.724;37.612;2022-10-26T05:18:06;11.23;;;8.25;;
42094;SDS011;27753;55.724;37.612;2022-10-26T05:20:34;15.38;;;8.82;;
42094;SDS011;27753;55.724;37.612;2022-10-26T05:23:01;13.95;;;9.13;;
42094;SDS011;27753;55.724;37.612;2022-10-26T05:25:29;13.75;;;8.02;;
42094;SDS011;27753;55.724;37.612;2022-10-26T05:27:58;16.88;;;8.48;;
42094;SDS011;27753;55.724;37.612;2022-10-26T05:30:25;13.25;;;8.63;;
42094;SDS011;27753;55.724;37.612;2022-10-26T05:32:52;15.93;;;8.07;;
42094;SDS011;27753;55.724;37.612;2022-10-26T05:35:22;11.85;;;7.57;;
42094;SDS011;27753;55.724;37.612;2022-10-26T05:37:48;14.98;;;8.80;;
42094;SDS011;27753;55.724;37.612;2022-10-26T05:40:14;11.07;;;7.82;;
42094;SDS011;27753;55.724;37.612;2022-10-26T05:42:41;10.52;;;7.70;;
42094;SDS011;27753;55.724;37.612;2022-10-26T05:45:08;14.32;;;8.40;;
42094;SDS011;27753;55.724;37.612;2022-10-26T05:47:40;14.68;;;9.43;;
42094;SDS011;27753;55.724;37.612;2022-10-26T05:50:09;18.42;;;9.00;;
42094;SDS011;27753;55.724;37.612;2022-10-26T05:52:42;16.00;;;10.33;;
42094;SDS011;27753;55.724;37.612;2022-10-26T05:55:12;14.55;;;9.82;;
42094;SDS011;27753;55.724;37.612;2022-10-26T05:57:41;12.25;;;8.25;;
42094;SDS011;27753;55.724;37.612;2022-10-26T06:00:08;14.55;;;7.85;;
42094;SDS011;27753;55.724;37.612;2022-10-26T06:02:43;14.77;;;8.70;;
42094;SDS011;27753;55.724;37.612;2022-10-26T06:05:21;11.90;;;7.80;;
42094;SDS011;27753;55.724;37.612;2022-10-26T06:07:50;10.55;;;8.02;;
42094;SDS011;27753;55.724;37.612;2022-10-26T06:10:16;12.27;;;8.50;;
42094;SDS011;27753;55.724;37.612;2022-10-26T06:12:43;13.75;;;8.55;;
42094;SDS011;27753;55.724;37.612;2022-10-26T06:15:17;12.63;;;7.85;;
42094;SDS011;27753;55.724;37.612;2022-10-26T06:26:03;15.40;;;8.85;;
42094;SDS011;27753;55.724;37.612;2022-10-26T06:28:44;14.88;;;9.18;;
42094;SDS011;27753;55.724;37.612;2022-10-26T06:31:22;12.27;;;8.55;;
42094;SDS011;27753;55.724;37.612;2022-10-26T06:33:48;14.70;;;8.13;;
42094;SDS011;27753;55.724;37.612;2022-10-26T06:36:22;14.98;;;8.70;;
42094;SDS011;27753;55.724;37.612;2022-10-26T06:38:59;19.10;;;8.85;;
42094;SDS011;27753;55.724;37.612;2022-10-26T06:41:31;16.10;;;8.77;;
42094;SDS011;27753;55.724;37.612;2022-10-26T06:43:58;19.23;;;7.97;;
42094;SDS011;27753;55.724;37.612;2022-10-26T06:51:47;12.68;;;8.18;;
42094;SDS011;27753;55.724;37.612;2022-10-26T06:57:15;14.88;;;8.73;;
42094;SDS011;27753;55.724;37.612;2022-10-26T07:02:15;17.40;;;8.68;;
42094;SDS011;27753;55.724;37.612;2022-10-26T07:04:42;16.02;;;9.32;;
42094;SDS011;27753;55.724;37.612;2022-10-26T07:07:13;15.95;;;9.18;;
42094;SDS011;27753;55.724;37.612;2022-10-26T07:09:42;21.13;;;8.70;;
42094;SDS011;27753;55.724;37.612;2022-10-26T07:12:08;12.95;;;10.65;;
42094;SDS011;27753;55.724;37.612;2022-10-26T07:14:34;16.35;;;8.30;;
42094;SDS011;27753;55.724;37.612;2022-10-26T07:17:00;17.05;;;8.32;;
42094;SDS011;27753;55.724;37.612;2022-10-26T07:19:25;10.07;;;8.63;;
42094;SDS011;27753;55.724;37.612;2022-10-26T07:21:54;13.23;;;9.80;;
42094;SDS011;27753;55.724;37.612;2022-10-26T07:24:23;19.27;;;8.80;;
42094;SDS011;27753;55.724;37.612;2022-10-26T07:26:49;11.15;;;8.75;;
42094;SDS011;27753;55.724;37.612;2022-10-26T07:29:15;15.30;;;8.50;;
42094;SDS011;27753;55.724;37.612;2022-10-26T07:31:42;15.70;;;7.90;;
42094;SDS011;27753;55.724;37.612;2022-10-26T07:34:08;11.75;;;7.50;;
42094;SDS011;27753;55.724;37.612;2022-10-26T07:36:34;17.48;;;9.73;;
42094;SDS011;27753;55.724;37.612;2022-10-26T07:39:01;16.25;;;9.13;;
42094;SDS011;27753;55.724;37.612;2022-10-26T07:41:27;12.70;;;8.80;;
42094;SDS011;27753;55.724;37.612;2022-10-26T07:43:57;16.30;;;8.30;;
42094;SDS011;27753;55.724;37.612;2022-10-26T07:46:23;19.13;;;9.35;;
42094;SDS011;27753;55.724;37.612;2022-10-26T07:48:49;14.97;;;8.67;;
42094;SDS011;27753;55.724;37.612;2022-10-26T07:51:15;11.18;;;8.10;;
42094;SDS011;27753;55.724;37.612;2022-10-26T07:53:41;11.13;;;7.82;;
42094;SDS011;27753;55.724;37.612;2022-10-26T07:56:08;14.50;;;9.00;;
42094;SDS011;27753;55.724;37.612;2022-10-26T07:58:34;16.10;;;10.40;;
42094;SDS011;27753;55.724;37.612;2022-10-26T08:01:04;11.65;;;8.65;;
42094;SDS011;27753;55.724;37.612;2022-10-26T08:03:31;11.20;;;8.30;;
42094;SDS011;27753;55.724;37.612;2022-10-26T08:05:57;10.55;;;7.68;;
42094;SDS011;27753;55.724;37.612;2022-10-26T08:08:23;10.98;;;7.57;;
42094;SDS011;27753;55.724;37.612;2022-10-26T08:10:49;12.43;;;8.77;;
42094;SDS011;27753;55.724;37.612;2022-10-26T08:13:19;12.82;;;7.35;;
42094;SDS011;27753;55.724;37.612;2022-10-26T08:15:45;12.93;;;8.13;;
42094;SDS011;27753;55.724;37.612;2022-10-26T08:18:11;12.82;;;8.80;;
42094;SDS011;27753;55.724;37.612;2022-10-26T08:20:37;14.80;;;8.82;;
42094;SDS011;27753;55.724;37.612;2022-10-26T08:23:03;13.07;;;8.80;;
42094;SDS011;27753;55.724;37.612;2022-10-26T08:25:33;16.95;;;8.07;;
42094;SDS011;27753;55.724;37.612;2022-10-26T08:27:59;16.20;;;8.00;;
42094;SDS011;27753;55.724;37.612;2022-10-26T08:30:27;17.90;;;9.30;;
42094;SDS011;27753;55.724;37.612;2022-10-26T08:33:00;17.67;;;8.05;;
42094;SDS011;27753;55.724;37.612;2022-10-26T08:35:28;12.38;;;8.70;;
42094;SDS011;27753;55.724;37.612;2022-10-26T08:37:54;9.10;;;7.68;;
42094;SDS011;27753;55.724;37.612;2022-10-26T08:40:27;13.48;;;8.20;;
42094;SDS011;27753;55.724;37.612;2022-10-26T08:43:15;21.27;;;9.75;;
42094;SDS011;27753;55.724;37.612;2022-10-26T08:45:51;9.25;;;7.47;;
42094;SDS011;27753;55.724;37.612;2022-10-26T08:48:22;15.10;;;8.45;;
42094;SDS011;27753;55.724;37.612;2022-10-26T08:50:57;15.43;;;8.13;;
42094;SDS011;27753;55.724;37.612;2022-10-26T08:55:57;14.93;;;11.05;;
42094;SDS011;27753;55.724;37.612;2022-10-26T08:58:27;13.18;;;9.00;;
42094;SDS011;27753;55.724;37.612;2022-10-26T09:01:01;12.95;;;7.53;;
42094;SDS011;27753;55.724;37.612;2022-10-26T09:03:29;15.00;;;8.07;;
42094;SDS011;27753;55.724;37.612;2022-10-26T09:06:08;13.65;;;7.75;;
42094;SDS011;27753;55.724;37.612;2022-10-26T09:08:53;8.40;;;6.60;;
42094;SDS011;27753;55.724;37.612;2022-10-26T09:24:19;12.00;;;7.88;;
42094;SDS011;27753;55.724;37.612;2022-10-26T09:29:14;14.07;;;8.35;;
42094;SDS011;27753;55.724;37.612;2022-10-26T09:31:41;11.95;;;6.60;;
42094;SDS011;27753;55.724;37.612;2022-10-26T09:34:11;8.50;;;6.13;;
42094;SDS011;27753;55.724;37.612;2022-10-26T09:36:39;14.48;;;7.13;;
42094;SDS011;27753;55.724;37.612;2022-10-26T09:39:17;16.75;;;7.22;;
42094;SDS011;27753;55.724;37.612;2022-10-26T09:41:57;13.65;;;7.38;;
42094;SDS011;27753;55.724;37.612;2022-10-26T09:47:37;9.93;;;7.60;;
42094;SDS011;27753;55.724;37.612;2022-10-26T09:52:37;13.77;;;6.95;;
42094;SDS011;27753;55.724;37.612;2022-10-26T09:55:02;11.23;;;6.82;;
42094;SDS011;27753;55.724;37.612;2022-10-26T09:57:28;11.85;;;7.22;;
42094;SDS011;27753;55.724;37.612;2022-10-26T09:59:55;15.52;;;7.15;;
42094;SDS011;27753;55.724;37.612;2022-10-26T10:07:51;10.20;;;5.85;;
42094;SDS011;27753;55.724;37.612;2022-10-26T10:15:23;9.38;;;6.35;;
42094;SDS011;27753;55.724;37.612;2022-10-26T10:17:53;9.43;;;6.80;;
42094;SDS011;27753;55.724;37.612;2022-10-26T10:20:28;11.48;;;6.63;;
42094;SDS011;27753;55.724;37.612;2022-10-26T10:23:00;10.40;;;6.70;;
42094;SDS011;27753;55.724;37.612;2022-10-26T10:25:37;9.07;;;5.60;;
42094;SDS011;27753;55.724;37.612;2022-10-26T10:28:20;9.80;;;7.50;;
42094;SDS011;27753;55.724;37.612;2022-10-26T10:30:57;11.55;;;7.07;;
42094;SDS011;27753;55.724;37.612;2022-10-26T10:33:44;7.93;;;5.78;;
42094;SDS011;27753;55.724;37.612;2022-10-26T10:36:13;15.67;;;6.50;;
42094;SDS011;27753;55.724;37.612;2022-10-26T10:38:44;9.13;;;5.18;;
42094;SDS011;27753;55.724;37.612;2022-10-26T10:41:16;13.20;;;5.65;;
42094;SDS011;27753;55.724;37.612;2022-10-26T10:46:40;11.52;;;5.13;;
42094;SDS011;27753;55.724;37.612;2022-10-26T10:49:15;7.18;;;5.35;;
42094;SDS011;27753;55.724;37.612;2022-10-26T10:54:16;7.53;;;4.78;;
42094;SDS011;27753;55.724;37.612;2022-10-26T10:57:06;7.93;;;4.97;;
42094;SDS011;27753;55.724;37.612;2022-10-26T11:00:09;10.73;;;6.25;;
42094;SDS011;27753;55.724;37.612;2022-10-26T11:08:03;11.40;;;4.72;;
42094;SDS011;27753;55.724;37.612;2022-10-26T11:10:37;14.52;;;5.57;;
42094;SDS011;27753;55.724;37.612;2022-10-26T11:13:09;13.23;;;5.68;;
42094;SDS011;27753;55.724;37.612;2022-10-26T11:15:49;9.32;;;6.15;;
42094;SDS011;27753;55.724;37.612;2022-10-26T11:18:40;10.80;;;6.43;;
42094;SDS011;27753;55.724;37.612;2022-10-26T11:21:30;13.75;;;6.57;;
42094;SDS011;27753;55.724;37.612;2022-10-26T11:29:22;11.90;;;6.35;;
42094;SDS011;27753;55.724;37.612;2022-10-26T11:31:59;14.40;;;6.68;;
42094;SDS011;27753;55.724;37.612;2022-10-26T11:34:49;11.18;;;5.82;;
42094;SDS011;27753;55.724;37.612;2022-10-26T11:37:24;11.73;;;6.22;;
42094;SDS011;27753;55.724;37.612;2022-10-26T11:42:51;8.80;;;5.68;;
42094;SDS011;27753;55.724;37.612;2022-10-26T11:45:33;8.68;;;5.70;;
42094;SDS011;27753;55.724;37.612;2022-10-26T11:48:05;10.85;;;6.25;;
42094;SDS011;27753;55.724;37.612;2022-10-26T11:50:55;9.70;;;5.90;;
42094;SDS011;27753;55.724;37.612;2022-10-26T11:53:38;14.25;;;6.60;;
42094;SDS011;27753;55.724;37.612;2022-10-26T11:56:11;11.75;;;5.50;;
42094;SDS011;27753;55.724;37.612;2022-10-26T11:58:45;11.40;;;6.18;;
42094;SDS011;27753;55.724;37.612;2022-10-26T12:01:12;11.32;;;5.18;;
42094;SDS011;27753;55.724;37.612;2022-10-26T12:03:45;12.73;;;6.85;;
42094;SDS011;27753;55.724;37.612;2022-10-26T12:06:18;9.68;;;5.13;;
42094;SDS011;27753;55.724;37.612;2022-10-26T12:08:55;11.23;;;6.38;;
42094;SDS011;27753;55.724;37.612;2022-10-26T12:17:12;9.88;;;5.43;;
42094;SDS011;27753;55.724;37.612;2022-10-26T12:22:31;8.68;;;6.05;;
42094;SDS011;27753;55.724;37.612;2022-10-26T12:30:27;14.18;;;6.15;;
42094;SDS011;27753;55.724;37.612;2022-10-26T12:33:00;10.23;;;4.80;;
42094;SDS011;27753;55.724;37.612;2022-10-26T12:35:32;18.10;;;5.70;;
42094;SDS011;27753;55.724;37.612;2022-10-26T12:56:23;9.95;;;5.45;;
42094;SDS011;27753;55.724;37.612;2022-10-26T13:07:25;15.77;;;7.25;;
42094;SDS011;27753;55.724;37.612;2022-10-26T13:12:37;14.07;;;5.00;;
42094;SDS011;27753;55.724;37.612;2022-10-26T13:20:33;8.45;;;5.07;;
42094;SDS011;27753;55.724;37.612;2022-10-26T13:23:01;9.65;;;6.03;;
42094;SDS011;27753;55.724;37.612;2022-10-26T13:25:39;10.43;;;4.95;;
42094;SDS011;27753;55.724;37.612;2022-10-26T13:28:28;11.45;;;6.22;;
42094;SDS011;27753;55.724;37.612;2022-10-26T13:30:56;7.93;;;4.47;;
42094;SDS011;27753;55.724;37.612;2022-10-26T13:33:23;7.63;;;5.78;;
42094;SDS011;27753;55.724;37.612;2022-10-26T13:35:55;12.32;;;5.43;;
42094;SDS011;27753;55.724;37.612;2022-10-26T13:38:23;15.77;;;5.50;;
42094;SDS011;27753;55.724;37.612;2022-10-26T13:40:58;12.27;;;5.15;;
42094;SDS011;27753;55.724;37.612;2022-10-26T13:43:31;9.10;;;4.05;;
42094;SDS011;27753;55.724;37.612;2022-10-26T13:46:01;9.50;;;4.85;;
42094;SDS011;27753;55.724;37.612;2022-10-26T13:51:04;12.68;;;5.93;;
42094;SDS011;27753;55.724;37.612;2022-10-26T13:56:31;9.55;;;6.13;;
42094;SDS011;27753;55.724;37.612;2022-10-26T13:59:09;12.73;;;5.97;;
42094;SDS011;27753;55.724;37.612;2022-10-26T14:01:37;10.18;;;5.72;;
42094;SDS011;27753;55.724;37.612;2022-10-26T14:04:16;12.52;;;5.63;;
42094;SDS011;27753;55.724;37.612;2022-10-26T14:06:50;17.23;;;7.05;;
42094;SDS011;27753;55.724;37.612;2022-10-26T14:09:18;12.73;;;6.85;;
42094;SDS011;27753;55.724;37.612;2022-10-26T14:16:52;11.43;;;6.53;;
42094;SDS011;27753;55.724;37.612;2022-10-26T14:19:24;10.88;;;6.63;;
42094;SDS011;27753;55.724;37.612;2022-10-26T14:21:55;14.32;;;7.25;;
42094;SDS011;27753;55.724;37.612;2022-10-26T14:24:23;9.75;;;6.25;;
42094;SDS011;27753;55.724;37.612;2022-10-26T14:26:57;14.55;;;6.32;;
42094;SDS011;27753;55.724;37.612;2022-10-26T14:29:24;10.10;;;6.38;;
42094;SDS011;27753;55.724;37.612;2022-10-26T14:31:52;15.65;;;6.85;;
42094;SDS011;27753;55.724;37.612;2022-10-26T14:34:19;20.67;;;7.57;;
42094;SDS011;27753;55.724;37.612;2022-10-26T14:36:47;13.35;;;6.93;;
42094;SDS011;27753;55.724;37.612;2022-10-26T14:39:36;14.40;;;7.75;;
42094;SDS011;27753;55.724;37.612;2022-10-26T14:42:50;25.90;;;10.50;;
42094;SDS011;27753;55.724;37.612;2022-10-26T14:44:58;15.60;;;9.23;;
42094;SDS011;27753;55.724;37.612;2022-10-26T14:47:31;14.77;;;8.75;;
42094;SDS011;27753;55.724;37.612;2022-10-26T14:49:59;20.15;;;7.90;;
42094;SDS011;27753;55.724;37.612;2022-10-26T14:52:30;13.30;;;8.25;;
42094;SDS011;27753;55.724;37.612;2022-10-26T14:55:00;15.20;;;8.82;;
42094;SDS011;27753;55.724;37.612;2022-10-26T14:57:37;18.83;;;10.02;;
42094;SDS011;27753;55.724;37.612;2022-10-26T15:00:18;21.33;;;9.32;;
42094;SDS011;27753;55.724;37.612;2022-10-26T15:02:49;23.67;;;11.63;;
42094;SDS011;27753;55.724;37.612;2022-10-26T15:07:48;20.30;;;8.63;;
42094;SDS011;27753;55.724;37.612;2022-10-26T15:13:09;22.42;;;10.02;;
42094;SDS011;27753;55.724;37.612;2022-10-26T15:15:43;11.55;;;8.18;;
42094;SDS011;27753;55.724;37.612;2022-10-26T15:18:29;13.53;;;9.37;;
42094;SDS011;27753;55.724;37.612;2022-10-26T15:20:59;13.02;;;7.68;;
42094;SDS011;27753;55.724;37.612;2022-10-26T15:23:25;16.70;;;8.52;;
42094;SDS011;27753;55.724;37.612;2022-10-26T15:25:57;14.27;;;8.63;;
42094;SDS011;27753;55.724;37.612;2022-10-26T15:28:29;12.32;;;8.40;;
42094;SDS011;27753;55.724;37.612;2022-10-26T15:31:21;15.18;;;9.35;;
42094;SDS011;27753;55.724;37.612;2022-10-26T15:36:18;20.90;;;8.50;;
42094;SDS011;27753;55.724;37.612;2022-10-26T15:38:46;16.38;;;8.88;;
42094;SDS011;27753;55.724;37.612;2022-10-26T15:41:18;17.50;;;10.25;;
42094;SDS011;27753;55.724;37.612;2022-10-26T15:43:53;11.30;;;8.30;;
42094;SDS011;27753;55.724;37.612;2022-10-26T15:46:29;15.60;;;9.75;;
42094;SDS011;27753;55.724;37.612;2022-10-26T15:49:00;18.35;;;8.05;;
42094;SDS011;27753;55.724;37.612;2022-10-26T15:51:28;11.10;;;8.55;;
42094;SDS011;27753;55.724;37.612;2022-10-26T15:53:58;11.68;;;7.95;;
42094;SDS011;27753;55.724;37.612;2022-10-26T15:56:27;13.32;;;8.70;;
42094;SDS011;27753;55.724;37.612;2022-10-26T15:58:54;14.70;;;7.70;;
42094;SDS011;27753;55.724;37.612;2022-10-26T16:01:21;13.00;;;8.50;;
42094;SDS011;27753;55.724;37.612;2022-10-26T16:03:51;12.20;;;7.10;;
42094;SDS011;27753;55.724;37.612;2022-10-26T16:06:34;15.27;;;8.07;;
42094;SDS011;27753;55.724;37.612;2022-10-26T16:09:01;18.23;;;8.85;;
42094;SDS011;27753;55.724;37.612;2022-10-26T16:11:29;15.43;;;9.68;;
42094;SDS011;27753;55.724;37.612;2022-10-26T16:13:55;19.50;;;8.88;;
42094;SDS011;27753;55.724;37.612;2022-10-26T16:16:24;15.30;;;7.68;;
42094;SDS011;27753;55.724;37.612;2022-10-26T16:18:51;13.30;;;8.52;;
42094;SDS011;27753;55.724;37.612;2022-10-26T16:21:18;11.43;;;8.75;;
42094;SDS011;27753;55.724;37.612;2022-10-26T16:23:49;15.70;;;7.18;;
42094;SDS011;27753;55.724;37.612;2022-10-26T16:26:17;14.50;;;8.32;;
42094;SDS011;27753;55.724;37.612;2022-10-26T16:28:44;19.20;;;8.05;;
42094;SDS011;27753;55.724;37.612;2022-10-26T16:31:13;14.73;;;7.60;;
42094;SDS011;27753;55.724;37.612;2022-10-26T16:33:41;12.68;;;6.45;;
42094;SDS011;27753;55.724;37.612;2022-10-26T16:36:07;14.48;;;7.68;;
42094;SDS011;27753;55.724;37.612;2022-10-26T16:38:37;18.48;;;10.05;;
42094;SDS011;27753;55.724;37.612;2022-10-26T16:43:35;9.77;;;7.43;;
42094;SDS011;27753;55.724;37.612;2022-10-26T16:48:38;15.20;;;7.43;;
42094;SDS011;27753;55.724;37.612;2022-10-26T16:51:08;14.48;;;9.05;;
42094;SDS011;27753;55.724;37.612;2022-10-26T16:53:41;14.48;;;8.35;;
42094;SDS011;27753;55.724;37.612;2022-10-26T16:56:11;16.23;;;8.88;;
42094;SDS011;27753;55.724;37.612;2022-10-26T16:58:39;14.05;;;9.95;;
42094;SDS011;27753;55.724;37.612;2022-10-26T17:01:06;13.77;;;9.15;;
42094;SDS011;27753;55.724;37.612;2022-10-26T17:03:33;12.18;;;8.68;;
42094;SDS011;27753;55.724;37.612;2022-10-26T17:06:01;12.75;;;7.15;;
42094;SDS011;27753;55.724;37.612;2022-10-26T17:08:29;10.20;;;7.20;;
42094;SDS011;27753;55.724;37.612;2022-10-26T17:11:03;13.10;;;8.18;;
42094;SDS011;27753;55.724;37.612;2022-10-26T17:13:32;13.55;;;7.97;;
42094;SDS011;27753;55.724;37.612;2022-10-26T17:16:06;16.30;;;7.25;;
42094;SDS011;27753;55.724;37.612;2022-10-26T17:18:35;13.85;;;8.18;;
42094;SDS011;27753;55.724;37.612;2022-10-26T17:21:02;9.70;;;7.65;;
42094;SDS011;27753;55.724;37.612;2022-10-26T17:23:30;11.57;;;8.68;;
42094;SDS011;27753;55.724;37.612;2022-10-26T17:26:00;14.13;;;7.50;;
42094;SDS011;27753;55.724;37.612;2022-10-26T17:28:27;14.23;;;8.23;;
42094;SDS011;27753;55.724;37.612;2022-10-26T17:31:03;16.48;;;10.32;;
42094;SDS011;27753;55.724;37.612;2022-10-26T17:33:32;10.93;;;8.45;;
42094;SDS011;27753;55.724;37.612;2022-10-26T17:35:59;10.25;;;7.38;;
42094;SDS011;27753;55.724;37.612;2022-10-26T17:38:28;15.65;;;8.88;;
42094;SDS011;27753;55.724;37.612;2022-10-26T17:40:59;16.67;;;8.57;;
42094;SDS011;27753;55.724;37.612;2022-10-26T17:43:32;12.80;;;8.38;;